sensor_id;sensor_type;location;lat;lon;timestamp;P1;durP1;ratioP1;P2;durP2;ratioP2
6406;SDS011;3236;51.022;6.818;2023-03-23T00:00:11;3.50;;;1.50;;
6406;SDS011;3236;51.022;6.818;2023-03-23T00:02:41;5.63;;;1.77;;
6406;SDS011;3236;51.022;6.818;2023-03-23T00:05:08;3.45;;;1.52;;
6406;SDS011;3236;51.022;6.818;2023-03-23T00:07:36;2.88;;;1.90;;
6406;SDS011;3236;51.022;6.818;2023-03-23T00:10:05;2.50;;;1.50;;
6406;SDS011;3236;51.022;6.818;2023-03-23T00:12:32;4.15;;;1.70;;
6406;SDS011;3236;51.022;6.818;2023-03-23T00:15:00;2.15;;;1.50;;
6406;SDS011;3236;51.022;6.818;2023-03-23T00:17:28;3.15;;;1.50;;
6406;SDS011;3236;51.022;6.818;2023-03-23T00:20:00;2.13;;;1.40;;
6406;SDS011;3236;51.022;6.818;2023-03-23T00:22:32;3.35;;;1.92;;
6406;SDS011;3236;51.022;6.818;2023-03-23T00:25:02;2.78;;;1.50;;
6406;SDS011;3236;51.022;6.818;2023-03-23T00:27:33;2.03;;;1.40;;
6406;SDS011;3236;51.022;6.818;2023-03-23T00:30:00;1.52;;;1.30;;
6406;SDS011;3236;51.022;6.818;2023-03-23T00:32:30;5.80;;;1.67;;
6406;SDS011;3236;51.022;6.818;2023-03-23T00:34:58;3.50;;;1.38;;
6406;SDS011;3236;51.022;6.818;2023-03-23T00:37:30;1.98;;;1.40;;
6406;SDS011;3236;51.022;6.818;2023-03-23T00:39:57;1.45;;;1.35;;
6406;SDS011;3236;51.022;6.818;2023-03-23T00:42:28;3.33;;;1.70;;
6406;SDS011;3236;51.022;6.818;2023-03-23T00:44:55;3.03;;;1.25;;
6406;SDS011;3236;51.022;6.818;2023-03-23T00:47:25;5.60;;;1.45;;
6406;SDS011;3236;51.022;6.818;2023-03-23T00:49:52;1.70;;;1.25;;
6406;SDS011;3236;51.022;6.818;2023-03-23T00:52:21;2.45;;;1.40;;
6406;SDS011;3236;51.022;6.818;2023-03-23T00:54:48;2.17;;;1.40;;
6406;SDS011;3236;51.022;6.818;2023-03-23T00:57:15;1.83;;;1.15;;
6406;SDS011;3236;51.022;6.818;2023-03-23T00:59:44;3.08;;;1.70;;
6406;SDS011;3236;51.022;6.818;2023-03-23T01:02:12;3.20;;;1.70;;
6406;SDS011;3236;51.022;6.818;2023-03-23T01:04:39;3.33;;;1.48;;
6406;SDS011;3236;51.022;6.818;2023-03-23T01:07:09;2.58;;;1.65;;
6406;SDS011;3236;51.022;6.818;2023-03-23T01:09:38;3.20;;;1.60;;
6406;SDS011;3236;51.022;6.818;2023-03-23T01:14:37;4.43;;;1.52;;
6406;SDS011;3236;51.022;6.818;2023-03-23T01:17:06;2.35;;;1.63;;
6406;SDS011;3236;51.022;6.818;2023-03-23T01:19:36;4.43;;;1.33;;
6406;SDS011;3236;51.022;6.818;2023-03-23T01:22:05;2.45;;;1.77;;
6406;SDS011;3236;51.022;6.818;2023-03-23T01:24:32;1.92;;;1.52;;
6406;SDS011;3236;51.022;6.818;2023-03-23T01:27:07;2.35;;;1.70;;
6406;SDS011;3236;51.022;6.818;2023-03-23T01:29:35;2.78;;;1.70;;
6406;SDS011;3236;51.022;6.818;2023-03-23T01:32:02;4.63;;;1.80;;
6406;SDS011;3236;51.022;6.818;2023-03-23T01:34:31;3.42;;;1.65;;
6406;SDS011;3236;51.022;6.818;2023-03-23T01:36:58;2.53;;;1.77;;
6406;SDS011;3236;51.022;6.818;2023-03-23T01:39:29;3.53;;;2.15;;
6406;SDS011;3236;51.022;6.818;2023-03-23T01:41:56;5.30;;;2.47;;
6406;SDS011;3236;51.022;6.818;2023-03-23T01:47:27;5.13;;;2.42;;
6406;SDS011;3236;51.022;6.818;2023-03-23T01:49:56;4.45;;;2.13;;
6406;SDS011;3236;51.022;6.818;2023-03-23T01:52:24;3.60;;;2.50;;
6406;SDS011;3236;51.022;6.818;2023-03-23T01:54:54;3.87;;;2.40;;
6406;SDS011;3236;51.022;6.818;2023-03-23T01:57:23;6.63;;;2.40;;
6406;SDS011;3236;51.022;6.818;2023-03-23T01:59:53;4.30;;;2.70;;
6406;SDS011;3236;51.022;6.818;2023-03-23T02:02:25;3.17;;;2.25;;
6406;SDS011;3236;51.022;6.818;2023-03-23T02:04:56;5.05;;;2.63;;
6406;SDS011;3236;51.022;6.818;2023-03-23T02:07:31;4.05;;;2.10;;
6406;SDS011;3236;51.022;6.818;2023-03-23T02:09:59;1.88;;;1.48;;
6406;SDS011;3236;51.022;6.818;2023-03-23T02:12:26;3.78;;;2.13;;
6406;SDS011;3236;51.022;6.818;2023-03-23T02:14:53;3.88;;;1.98;;
6406;SDS011;3236;51.022;6.818;2023-03-23T02:17:22;4.28;;;2.10;;
6406;SDS011;3236;51.022;6.818;2023-03-23T02:20:05;3.30;;;2.03;;
6406;SDS011;3236;51.022;6.818;2023-03-23T02:22:52;2.72;;;2.28;;
6406;SDS011;3236;51.022;6.818;2023-03-23T02:25:48;2.30;;;1.95;;
6406;SDS011;3236;51.022;6.818;2023-03-23T02:28:28;7.07;;;2.33;;
6406;SDS011;3236;51.022;6.818;2023-03-23T02:31:15;4.35;;;2.42;;
6406;SDS011;3236;51.022;6.818;2023-03-23T02:34:05;3.75;;;2.35;;
6406;SDS011;3236;51.022;6.818;2023-03-23T02:36:40;4.95;;;2.50;;
6406;SDS011;3236;51.022;6.818;2023-03-23T02:39:15;2.38;;;1.85;;
6406;SDS011;3236;51.022;6.818;2023-03-23T02:41:49;5.60;;;2.30;;
6406;SDS011;3236;51.022;6.818;2023-03-23T02:46:48;2.88;;;2.08;;
6406;SDS011;3236;51.022;6.818;2023-03-23T02:49:21;3.45;;;2.55;;
6406;SDS011;3236;51.022;6.818;2023-03-23T02:51:51;2.80;;;2.13;;
6406;SDS011;3236;51.022;6.818;2023-03-23T02:54:20;2.65;;;1.95;;
6406;SDS011;3236;51.022;6.818;2023-03-23T02:56:50;2.90;;;1.80;;
6406;SDS011;3236;51.022;6.818;2023-03-23T02:59:19;4.85;;;2.13;;
6406;SDS011;3236;51.022;6.818;2023-03-23T03:01:55;3.35;;;1.95;;
6406;SDS011;3236;51.022;6.818;2023-03-23T03:04:40;2.72;;;1.65;;
6406;SDS011;3236;51.022;6.818;2023-03-23T03:07:17;4.78;;;2.22;;
6406;SDS011;3236;51.022;6.818;2023-03-23T03:09:52;2.40;;;1.90;;
6406;SDS011;3236;51.022;6.818;2023-03-23T03:12:28;4.88;;;1.90;;
6406;SDS011;3236;51.022;6.818;2023-03-23T03:15:08;3.08;;;1.70;;
6406;SDS011;3236;51.022;6.818;2023-03-23T03:17:41;2.65;;;1.92;;
6406;SDS011;3236;51.022;6.818;2023-03-23T03:20:17;4.10;;;1.70;;
6406;SDS011;3236;51.022;6.818;2023-03-23T03:22:44;2.58;;;2.08;;
6406;SDS011;3236;51.022;6.818;2023-03-23T03:25:13;1.98;;;1.60;;
6406;SDS011;3236;51.022;6.818;2023-03-23T03:27:42;3.67;;;1.52;;
6406;SDS011;3236;51.022;6.818;2023-03-23T03:30:14;2.10;;;1.60;;
6406;SDS011;3236;51.022;6.818;2023-03-23T03:32:46;2.30;;;1.73;;
6406;SDS011;3236;51.022;6.818;2023-03-23T03:35:17;2.53;;;1.52;;
6406;SDS011;3236;51.022;6.818;2023-03-23T03:37:45;4.55;;;1.65;;
6406;SDS011;3236;51.022;6.818;2023-03-23T03:40:13;1.70;;;1.60;;
6406;SDS011;3236;51.022;6.818;2023-03-23T03:42:43;3.83;;;1.90;;
6406;SDS011;3236;51.022;6.818;2023-03-23T03:45:11;2.22;;;1.65;;
6406;SDS011;3236;51.022;6.818;2023-03-23T03:47:40;3.42;;;1.75;;
6406;SDS011;3236;51.022;6.818;2023-03-23T03:50:10;2.08;;;1.65;;
6406;SDS011;3236;51.022;6.818;2023-03-23T03:52:39;4.70;;;2.25;;
6406;SDS011;3236;51.022;6.818;2023-03-23T03:55:07;2.38;;;1.67;;
6406;SDS011;3236;51.022;6.818;2023-03-23T03:57:35;3.17;;;1.50;;
6406;SDS011;3236;51.022;6.818;2023-03-23T04:00:02;2.88;;;1.70;;
6406;SDS011;3236;51.022;6.818;2023-03-23T04:02:39;2.00;;;1.48;;
6406;SDS011;3236;51.022;6.818;2023-03-23T04:05:07;1.90;;;1.58;;
6406;SDS011;3236;51.022;6.818;2023-03-23T04:07:36;3.35;;;1.60;;
6406;SDS011;3236;51.022;6.818;2023-03-23T04:10:06;3.42;;;1.95;;
6406;SDS011;3236;51.022;6.818;2023-03-23T04:12:36;3.60;;;2.20;;
6406;SDS011;3236;51.022;6.818;2023-03-23T04:15:03;3.40;;;2.10;;
6406;SDS011;3236;51.022;6.818;2023-03-23T04:17:32;4.95;;;2.30;;
6406;SDS011;3236;51.022;6.818;2023-03-23T04:19:59;2.53;;;1.90;;
6406;SDS011;3236;51.022;6.818;2023-03-23T04:22:32;4.20;;;2.45;;
6406;SDS011;3236;51.022;6.818;2023-03-23T04:25:00;6.13;;;2.10;;
6406;SDS011;3236;51.022;6.818;2023-03-23T04:27:31;5.28;;;1.83;;
6406;SDS011;3236;51.022;6.818;2023-03-23T04:30:01;4.13;;;2.40;;
6406;SDS011;3236;51.022;6.818;2023-03-23T04:35:00;4.97;;;2.10;;
6406;SDS011;3236;51.022;6.818;2023-03-23T04:37:27;2.80;;;1.98;;
6406;SDS011;3236;51.022;6.818;2023-03-23T04:40:01;6.80;;;2.90;;
6406;SDS011;3236;51.022;6.818;2023-03-23T04:42:36;7.38;;;2.92;;
6406;SDS011;3236;51.022;6.818;2023-03-23T04:45:05;6.20;;;2.83;;
6406;SDS011;3236;51.022;6.818;2023-03-23T04:47:34;4.60;;;2.58;;
6406;SDS011;3236;51.022;6.818;2023-03-23T04:50:06;4.75;;;2.47;;
6406;SDS011;3236;51.022;6.818;2023-03-23T04:52:34;5.60;;;2.33;;
6406;SDS011;3236;51.022;6.818;2023-03-23T04:55:05;3.75;;;2.60;;
6406;SDS011;3236;51.022;6.818;2023-03-23T04:57:35;2.95;;;2.20;;
6406;SDS011;3236;51.022;6.818;2023-03-23T05:00:05;3.33;;;2.42;;
6406;SDS011;3236;51.022;6.818;2023-03-23T05:02:34;3.97;;;2.37;;
6406;SDS011;3236;51.022;6.818;2023-03-23T05:05:01;3.28;;;2.08;;
6406;SDS011;3236;51.022;6.818;2023-03-23T05:07:29;2.95;;;1.83;;
6406;SDS011;3236;51.022;6.818;2023-03-23T05:09:56;3.17;;;1.52;;
6406;SDS011;3236;51.022;6.818;2023-03-23T05:12:25;4.50;;;2.13;;
6406;SDS011;3236;51.022;6.818;2023-03-23T05:14:52;2.92;;;2.20;;
6406;SDS011;3236;51.022;6.818;2023-03-23T05:17:20;3.33;;;1.83;;
6406;SDS011;3236;51.022;6.818;2023-03-23T05:19:49;2.83;;;1.95;;
6406;SDS011;3236;51.022;6.818;2023-03-23T05:22:16;3.30;;;2.15;;
6406;SDS011;3236;51.022;6.818;2023-03-23T05:24:45;2.65;;;2.00;;
6406;SDS011;3236;51.022;6.818;2023-03-23T05:27:13;3.90;;;2.10;;
6406;SDS011;3236;51.022;6.818;2023-03-23T05:29:44;3.22;;;2.30;;
6406;SDS011;3236;51.022;6.818;2023-03-23T05:32:14;2.58;;;2.10;;
6406;SDS011;3236;51.022;6.818;2023-03-23T05:34:42;4.45;;;1.90;;
6406;SDS011;3236;51.022;6.818;2023-03-23T05:37:09;4.78;;;2.53;;
6406;SDS011;3236;51.022;6.818;2023-03-23T05:39:37;4.30;;;2.05;;
6406;SDS011;3236;51.022;6.818;2023-03-23T05:42:05;5.22;;;2.15;;
6406;SDS011;3236;51.022;6.818;2023-03-23T05:44:33;2.65;;;1.85;;
6406;SDS011;3236;51.022;6.818;2023-03-23T05:47:03;2.72;;;1.77;;
6406;SDS011;3236;51.022;6.818;2023-03-23T05:49:43;2.75;;;1.98;;
6406;SDS011;3236;51.022;6.818;2023-03-23T05:52:11;4.10;;;2.05;;
6406;SDS011;3236;51.022;6.818;2023-03-23T05:54:38;1.88;;;1.67;;
6406;SDS011;3236;51.022;6.818;2023-03-23T05:57:06;3.30;;;1.70;;
6406;SDS011;3236;51.022;6.818;2023-03-23T05:59:33;6.50;;;1.75;;
6406;SDS011;3236;51.022;6.818;2023-03-23T06:02:02;3.10;;;1.52;;
6406;SDS011;3236;51.022;6.818;2023-03-23T06:04:30;2.17;;;0.93;;
6406;SDS011;3236;51.022;6.818;2023-03-23T06:06:58;4.57;;;1.30;;
6406;SDS011;3236;51.022;6.818;2023-03-23T06:09:25;3.92;;;1.50;;
6406;SDS011;3236;51.022;6.818;2023-03-23T06:11:53;4.13;;;1.52;;
6406;SDS011;3236;51.022;6.818;2023-03-23T06:14:20;2.35;;;1.35;;
6406;SDS011;3236;51.022;6.818;2023-03-23T06:16:47;3.25;;;1.65;;
6406;SDS011;3236;51.022;6.818;2023-03-23T06:19:15;4.72;;;1.35;;
6406;SDS011;3236;51.022;6.818;2023-03-23T06:21:42;3.78;;;1.10;;
6406;SDS011;3236;51.022;6.818;2023-03-23T06:24:10;6.75;;;1.35;;
6406;SDS011;3236;51.022;6.818;2023-03-23T06:26:37;5.82;;;1.30;;
6406;SDS011;3236;51.022;6.818;2023-03-23T06:29:06;2.25;;;1.00;;
6406;SDS011;3236;51.022;6.818;2023-03-23T06:31:36;5.72;;;2.03;;
6406;SDS011;3236;51.022;6.818;2023-03-23T06:34:06;3.38;;;1.08;;
6406;SDS011;3236;51.022;6.818;2023-03-23T06:36:35;4.65;;;1.48;;
6406;SDS011;3236;51.022;6.818;2023-03-23T06:39:03;5.22;;;1.83;;
6406;SDS011;3236;51.022;6.818;2023-03-23T06:41:30;3.70;;;1.38;;
6406;SDS011;3236;51.022;6.818;2023-03-23T06:43:58;4.05;;;1.35;;
6406;SDS011;3236;51.022;6.818;2023-03-23T06:46:31;3.90;;;1.02;;
6406;SDS011;3236;51.022;6.818;2023-03-23T06:48:58;3.13;;;1.00;;
6406;SDS011;3236;51.022;6.818;2023-03-23T06:51:26;2.83;;;1.55;;
6406;SDS011;3236;51.022;6.818;2023-03-23T06:53:55;5.55;;;1.50;;
6406;SDS011;3236;51.022;6.818;2023-03-23T06:56:22;2.75;;;1.20;;
6406;SDS011;3236;51.022;6.818;2023-03-23T06:58:49;3.25;;;1.10;;
6406;SDS011;3236;51.022;6.818;2023-03-23T07:01:19;5.18;;;1.40;;
6406;SDS011;3236;51.022;6.818;2023-03-23T07:03:53;3.25;;;1.25;;
6406;SDS011;3236;51.022;6.818;2023-03-23T07:06:21;2.10;;;1.00;;
6406;SDS011;3236;51.022;6.818;2023-03-23T07:08:49;1.27;;;1.08;;
6406;SDS011;3236;51.022;6.818;2023-03-23T07:11:18;6.03;;;1.80;;
6406;SDS011;3236;51.022;6.818;2023-03-23T07:13:45;3.17;;;1.42;;
6406;SDS011;3236;51.022;6.818;2023-03-23T07:16:14;7.22;;;1.27;;
6406;SDS011;3236;51.022;6.818;2023-03-23T07:18:43;3.85;;;1.35;;
6406;SDS011;3236;51.022;6.818;2023-03-23T07:21:11;2.92;;;1.10;;
6406;SDS011;3236;51.022;6.818;2023-03-23T07:23:38;2.67;;;1.20;;
6406;SDS011;3236;51.022;6.818;2023-03-23T07:26:05;6.80;;;1.83;;
6406;SDS011;3236;51.022;6.818;2023-03-23T07:28:42;2.75;;;1.25;;
6406;SDS011;3236;51.022;6.818;2023-03-23T07:31:18;3.67;;;1.52;;
6406;SDS011;3236;51.022;6.818;2023-03-23T07:33:45;5.88;;;1.90;;
6406;SDS011;3236;51.022;6.818;2023-03-23T07:36:18;2.40;;;1.00;;
6406;SDS011;3236;51.022;6.818;2023-03-23T07:38:45;2.83;;;1.40;;
6406;SDS011;3236;51.022;6.818;2023-03-23T07:41:13;1.98;;;1.17;;
6406;SDS011;3236;51.022;6.818;2023-03-23T07:43:41;5.18;;;1.40;;
6406;SDS011;3236;51.022;6.818;2023-03-23T07:46:09;3.25;;;1.15;;
6406;SDS011;3236;51.022;6.818;2023-03-23T07:48:36;2.33;;;1.15;;
6406;SDS011;3236;51.022;6.818;2023-03-23T07:51:06;2.90;;;1.10;;
6406;SDS011;3236;51.022;6.818;2023-03-23T07:53:33;3.97;;;1.08;;
6406;SDS011;3236;51.022;6.818;2023-03-23T07:56:03;8.13;;;1.00;;
6406;SDS011;3236;51.022;6.818;2023-03-23T07:58:37;3.70;;;1.00;;
6406;SDS011;3236;51.022;6.818;2023-03-23T08:01:05;3.42;;;1.40;;
6406;SDS011;3236;51.022;6.818;2023-03-23T08:03:38;6.00;;;1.88;;
6406;SDS011;3236;51.022;6.818;2023-03-23T08:06:06;8.27;;;1.55;;
6406;SDS011;3236;51.022;6.818;2023-03-23T08:08:33;3.97;;;1.10;;
6406;SDS011;3236;51.022;6.818;2023-03-23T08:11:02;3.00;;;1.15;;
6406;SDS011;3236;51.022;6.818;2023-03-23T08:13:30;2.38;;;1.08;;
6406;SDS011;3236;51.022;6.818;2023-03-23T08:16:07;2.92;;;1.20;;
6406;SDS011;3236;51.022;6.818;2023-03-23T08:18:35;5.05;;;1.10;;
6406;SDS011;3236;51.022;6.818;2023-03-23T08:21:04;4.10;;;1.20;;
6406;SDS011;3236;51.022;6.818;2023-03-23T08:23:36;3.60;;;1.00;;
6406;SDS011;3236;51.022;6.818;2023-03-23T08:26:06;9.55;;;1.83;;
6406;SDS011;3236;51.022;6.818;2023-03-23T08:28:35;2.92;;;0.95;;
6406;SDS011;3236;51.022;6.818;2023-03-23T08:31:07;4.70;;;1.20;;
6406;SDS011;3236;51.022;6.818;2023-03-23T08:33:35;4.35;;;1.20;;
6406;SDS011;3236;51.022;6.818;2023-03-23T08:36:03;5.28;;;1.27;;
6406;SDS011;3236;51.022;6.818;2023-03-23T08:38:31;2.75;;;1.00;;
6406;SDS011;3236;51.022;6.818;2023-03-23T08:41:00;3.28;;;1.10;;
6406;SDS011;3236;51.022;6.818;2023-03-23T08:43:28;2.60;;;1.30;;
6406;SDS011;3236;51.022;6.818;2023-03-23T08:45:58;4.20;;;1.10;;
6406;SDS011;3236;51.022;6.818;2023-03-23T08:48:28;2.63;;;0.93;;
6406;SDS011;3236;51.022;6.818;2023-03-23T08:50:55;6.10;;;1.60;;
6406;SDS011;3236;51.022;6.818;2023-03-23T08:53:25;5.53;;;1.70;;
6406;SDS011;3236;51.022;6.818;2023-03-23T08:55:56;1.90;;;1.20;;
6406;SDS011;3236;51.022;6.818;2023-03-23T08:58:28;3.80;;;1.30;;
6406;SDS011;3236;51.022;6.818;2023-03-23T09:00:55;4.00;;;1.20;;
6406;SDS011;3236;51.022;6.818;2023-03-23T09:03:23;2.50;;;1.05;;
6406;SDS011;3236;51.022;6.818;2023-03-23T09:05:51;5.35;;;1.35;;
6406;SDS011;3236;51.022;6.818;2023-03-23T09:08:18;4.72;;;1.65;;
6406;SDS011;3236;51.022;6.818;2023-03-23T09:10:46;11.98;;;2.03;;
6406;SDS011;3236;51.022;6.818;2023-03-23T09:13:14;3.47;;;1.23;;
6406;SDS011;3236;51.022;6.818;2023-03-23T09:15:42;3.45;;;1.38;;
6406;SDS011;3236;51.022;6.818;2023-03-23T09:18:09;3.90;;;1.10;;
6406;SDS011;3236;51.022;6.818;2023-03-23T09:20:36;6.80;;;1.27;;
6406;SDS011;3236;51.022;6.818;2023-03-23T09:23:05;5.25;;;1.40;;
6406;SDS011;3236;51.022;6.818;2023-03-23T09:25:32;4.22;;;1.70;;
6406;SDS011;3236;51.022;6.818;2023-03-23T09:28:07;4.75;;;2.20;;
6406;SDS011;3236;51.022;6.818;2023-03-23T09:30:35;2.42;;;1.15;;
6406;SDS011;3236;51.022;6.818;2023-03-23T09:33:06;4.30;;;1.15;;
6406;SDS011;3236;51.022;6.818;2023-03-23T09:35:34;1.02;;;0.77;;
6406;SDS011;3236;51.022;6.818;2023-03-23T09:38:02;4.35;;;0.93;;
6406;SDS011;3236;51.022;6.818;2023-03-23T09:40:33;2.15;;;1.17;;
6406;SDS011;3236;51.022;6.818;2023-03-23T09:43:16;9.68;;;1.55;;
6406;SDS011;3236;51.022;6.818;2023-03-23T09:45:58;7.18;;;1.30;;
6406;SDS011;3236;51.022;6.818;2023-03-23T09:48:38;5.18;;;1.08;;
6406;SDS011;3236;51.022;6.818;2023-03-23T09:51:17;3.78;;;1.80;;
6406;SDS011;3236;51.022;6.818;2023-03-23T09:53:53;4.38;;;1.27;;
6406;SDS011;3236;51.022;6.818;2023-03-23T09:56:22;2.67;;;0.95;;
6406;SDS011;3236;51.022;6.818;2023-03-23T09:58:53;3.55;;;1.05;;
6406;SDS011;3236;51.022;6.818;2023-03-23T10:01:24;3.42;;;1.10;;
6406;SDS011;3236;51.022;6.818;2023-03-23T10:03:58;4.93;;;1.42;;
6406;SDS011;3236;51.022;6.818;2023-03-23T10:06:30;4.75;;;1.38;;
6406;SDS011;3236;51.022;6.818;2023-03-23T10:08:59;4.03;;;1.10;;
6406;SDS011;3236;51.022;6.818;2023-03-23T10:11:33;9.98;;;1.17;;
6406;SDS011;3236;51.022;6.818;2023-03-23T10:14:12;9.48;;;1.20;;
6406;SDS011;3236;51.022;6.818;2023-03-23T10:16:48;4.10;;;1.33;;
6406;SDS011;3236;51.022;6.818;2023-03-23T10:19:24;5.20;;;1.00;;
6406;SDS011;3236;51.022;6.818;2023-03-23T10:22:01;2.38;;;0.90;;
6406;SDS011;3236;51.022;6.818;2023-03-23T10:24:36;5.57;;;0.98;;
6406;SDS011;3236;51.022;6.818;2023-03-23T10:27:11;2.13;;;1.23;;
6406;SDS011;3236;51.022;6.818;2023-03-23T10:29:48;0.40;;;0.40;;
6406;SDS011;3236;51.022;6.818;2023-03-23T10:32:20;1.70;;;0.70;;
6406;SDS011;3236;51.022;6.818;2023-03-23T10:35:03;5.55;;;0.80;;
6406;SDS011;3236;51.022;6.818;2023-03-23T10:37:36;4.43;;;1.35;;
6406;SDS011;3236;51.022;6.818;2023-03-23T10:40:13;3.28;;;0.82;;
6406;SDS011;3236;51.022;6.818;2023-03-23T10:42:43;4.95;;;0.60;;
6406;SDS011;3236;51.022;6.818;2023-03-23T10:45:12;4.75;;;1.17;;
6406;SDS011;3236;51.022;6.818;2023-03-23T10:47:46;1.90;;;0.90;;
6406;SDS011;3236;51.022;6.818;2023-03-23T10:50:16;1.25;;;0.68;;
6406;SDS011;3236;51.022;6.818;2023-03-23T10:52:57;0.63;;;0.50;;
6406;SDS011;3236;51.022;6.818;2023-03-23T10:58:04;0.40;;;0.40;;
6406;SDS011;3236;51.022;6.818;2023-03-23T11:00:33;3.42;;;0.57;;
6406;SDS011;3236;51.022;6.818;2023-03-23T11:03:01;2.08;;;0.75;;
6406;SDS011;3236;51.022;6.818;2023-03-23T11:05:35;3.75;;;0.65;;
6406;SDS011;3236;51.022;6.818;2023-03-23T11:08:11;10.82;;;0.98;;
6406;SDS011;3236;51.022;6.818;2023-03-23T11:10:49;8.38;;;0.65;;
6406;SDS011;3236;51.022;6.818;2023-03-23T11:13:18;0.85;;;0.60;;
6406;SDS011;3236;51.022;6.818;2023-03-23T11:15:46;2.42;;;0.77;;
6406;SDS011;3236;51.022;6.818;2023-03-23T11:18:18;1.30;;;0.70;;
6406;SDS011;3236;51.022;6.818;2023-03-23T11:20:50;1.20;;;0.80;;
6406;SDS011;3236;51.022;6.818;2023-03-23T11:23:25;4.65;;;1.33;;
6406;SDS011;3236;51.022;6.818;2023-03-23T11:26:08;1.88;;;0.60;;
6406;SDS011;3236;51.022;6.818;2023-03-23T11:28:42;1.38;;;0.80;;
6406;SDS011;3236;51.022;6.818;2023-03-23T11:31:12;0.82;;;0.80;;
6406;SDS011;3236;51.022;6.818;2023-03-23T11:33:45;0.60;;;0.32;;
6406;SDS011;3236;51.022;6.818;2023-03-23T11:36:17;3.83;;;1.00;;
6406;SDS011;3236;51.022;6.818;2023-03-23T11:38:44;3.72;;;1.10;;
6406;SDS011;3236;51.022;6.818;2023-03-23T11:41:18;3.13;;;1.20;;
6406;SDS011;3236;51.022;6.818;2023-03-23T11:43:50;3.03;;;1.30;;
6406;SDS011;3236;51.022;6.818;2023-03-23T11:46:22;1.88;;;1.30;;
6406;SDS011;3236;51.022;6.818;2023-03-23T11:48:58;4.63;;;2.00;;
6406;SDS011;3236;51.022;6.818;2023-03-23T11:51:30;3.13;;;1.88;;
6406;SDS011;3236;51.022;6.818;2023-03-23T11:54:02;4.05;;;2.10;;
6406;SDS011;3236;51.022;6.818;2023-03-23T11:56:39;4.60;;;2.00;;
6406;SDS011;3236;51.022;6.818;2023-03-23T12:01:44;4.35;;;2.70;;
6406;SDS011;3236;51.022;6.818;2023-03-23T12:07:29;12.43;;;1.88;;
6406;SDS011;3236;51.022;6.818;2023-03-23T12:10:17;2.40;;;1.20;;
6406;SDS011;3236;51.022;6.818;2023-03-23T12:12:58;3.50;;;0.90;;
6406;SDS011;3236;51.022;6.818;2023-03-23T12:15:34;0.52;;;0.52;;
6406;SDS011;3236;51.022;6.818;2023-03-23T12:18:22;5.05;;;0.95;;
6406;SDS011;3236;51.022;6.818;2023-03-23T12:20:58;1.80;;;1.10;;
6406;SDS011;3236;51.022;6.818;2023-03-23T12:23:33;1.23;;;0.77;;
6406;SDS011;3236;51.022;6.818;2023-03-23T12:26:11;4.43;;;0.80;;
6406;SDS011;3236;51.022;6.818;2023-03-23T12:29:12;3.22;;;0.60;;
6406;SDS011;3236;51.022;6.818;2023-03-23T12:35:07;1.35;;;0.80;;
6406;SDS011;3236;51.022;6.818;2023-03-23T12:37:48;4.32;;;1.00;;
6406;SDS011;3236;51.022;6.818;2023-03-23T12:43:17;7.05;;;1.50;;
6406;SDS011;3236;51.022;6.818;2023-03-23T12:46:04;3.15;;;1.05;;
6406;SDS011;3236;51.022;6.818;2023-03-23T12:48:51;3.17;;;1.00;;
6406;SDS011;3236;51.022;6.818;2023-03-23T12:51:24;3.70;;;0.82;;
6406;SDS011;3236;51.022;6.818;2023-03-23T12:53:57;1.05;;;0.60;;
6406;SDS011;3236;51.022;6.818;2023-03-23T12:56:32;1.95;;;0.80;;
6406;SDS011;3236;51.022;6.818;2023-03-23T12:59:04;1.50;;;0.57;;
6406;SDS011;3236;51.022;6.818;2023-03-23T13:01:41;1.35;;;0.70;;
6406;SDS011;3236;51.022;6.818;2023-03-23T13:04:11;4.40;;;1.23;;
6406;SDS011;3236;51.022;6.818;2023-03-23T13:06:43;2.05;;;1.20;;
6406;SDS011;3236;51.022;6.818;2023-03-23T13:09:13;3.60;;;0.88;;
6406;SDS011;3236;51.022;6.818;2023-03-23T13:11:46;3.13;;;0.73;;
6406;SDS011;3236;51.022;6.818;2023-03-23T13:16:54;1.75;;;0.90;;
6406;SDS011;3236;51.022;6.818;2023-03-23T13:19:28;3.47;;;0.90;;
6406;SDS011;3236;51.022;6.818;2023-03-23T13:22:02;3.33;;;0.90;;
6406;SDS011;3236;51.022;6.818;2023-03-23T13:24:33;1.38;;;0.60;;
6406;SDS011;3236;51.022;6.818;2023-03-23T13:27:09;1.85;;;0.70;;
6406;SDS011;3236;51.022;6.818;2023-03-23T13:29:43;1.85;;;0.70;;
6406;SDS011;3236;51.022;6.818;2023-03-23T13:32:15;1.90;;;0.70;;
6406;SDS011;3236;51.022;6.818;2023-03-23T13:34:43;1.27;;;0.70;;
6406;SDS011;3236;51.022;6.818;2023-03-23T13:37:19;6.00;;;0.70;;
6406;SDS011;3236;51.022;6.818;2023-03-23T13:39:50;4.95;;;0.85;;
6406;SDS011;3236;51.022;6.818;2023-03-23T13:42:21;1.92;;;0.75;;
6406;SDS011;3236;51.022;6.818;2023-03-23T13:47:48;3.45;;;0.63;;
6406;SDS011;3236;51.022;6.818;2023-03-23T13:50:25;1.42;;;0.75;;
6406;SDS011;3236;51.022;6.818;2023-03-23T13:52:55;3.33;;;0.70;;
6406;SDS011;3236;51.022;6.818;2023-03-23T13:55:41;2.78;;;1.00;;
6406;SDS011;3236;51.022;6.818;2023-03-23T14:01:09;3.13;;;1.00;;
6406;SDS011;3236;51.022;6.818;2023-03-23T14:03:43;1.10;;;1.00;;
6406;SDS011;3236;51.022;6.818;2023-03-23T14:06:15;3.80;;;1.33;;
6406;SDS011;3236;51.022;6.818;2023-03-23T14:08:45;2.75;;;0.93;;
6406;SDS011;3236;51.022;6.818;2023-03-23T14:11:16;2.60;;;0.98;;
6406;SDS011;3236;51.022;6.818;2023-03-23T14:13:59;4.22;;;1.23;;
6406;SDS011;3236;51.022;6.818;2023-03-23T14:16:32;6.18;;;1.27;;
6406;SDS011;3236;51.022;6.818;2023-03-23T14:19:16;3.85;;;1.35;;
6406;SDS011;3236;51.022;6.818;2023-03-23T14:21:49;3.17;;;1.20;;
6406;SDS011;3236;51.022;6.818;2023-03-23T14:24:20;6.40;;;1.33;;
6406;SDS011;3236;51.022;6.818;2023-03-23T14:26:49;4.35;;;1.55;;
6406;SDS011;3236;51.022;6.818;2023-03-23T14:29:19;3.78;;;1.05;;
6406;SDS011;3236;51.022;6.818;2023-03-23T14:31:52;3.33;;;1.40;;
6406;SDS011;3236;51.022;6.818;2023-03-23T14:34:26;3.80;;;1.30;;
6406;SDS011;3236;51.022;6.818;2023-03-23T14:36:55;6.47;;;1.48;;
6406;SDS011;3236;51.022;6.818;2023-03-23T14:39:24;5.95;;;1.38;;
6406;SDS011;3236;51.022;6.818;2023-03-23T14:41:53;4.25;;;1.70;;
6406;SDS011;3236;51.022;6.818;2023-03-23T14:44:22;6.95;;;1.63;;
6406;SDS011;3236;51.022;6.818;2023-03-23T14:46:52;6.18;;;1.65;;
6406;SDS011;3236;51.022;6.818;2023-03-23T14:49:23;3.17;;;1.20;;
6406;SDS011;3236;51.022;6.818;2023-03-23T14:51:55;6.00;;;2.05;;
6406;SDS011;3236;51.022;6.818;2023-03-23T14:54:24;4.50;;;1.92;;
6406;SDS011;3236;51.022;6.818;2023-03-23T14:56:54;4.50;;;1.55;;
6406;SDS011;3236;51.022;6.818;2023-03-23T14:59:24;5.32;;;1.35;;
6406;SDS011;3236;51.022;6.818;2023-03-23T15:01:51;6.80;;;1.90;;
6406;SDS011;3236;51.022;6.818;2023-03-23T15:04:18;4.88;;;2.30;;
6406;SDS011;3236;51.022;6.818;2023-03-23T15:06:49;7.53;;;2.20;;
6406;SDS011;3236;51.022;6.818;2023-03-23T15:09:22;7.50;;;2.22;;
6406;SDS011;3236;51.022;6.818;2023-03-23T15:11:54;8.55;;;2.70;;
6406;SDS011;3236;51.022;6.818;2023-03-23T15:14:26;5.07;;;2.00;;
6406;SDS011;3236;51.022;6.818;2023-03-23T15:16:55;12.70;;;2.30;;
6406;SDS011;3236;51.022;6.818;2023-03-23T15:19:24;11.45;;;2.00;;
6406;SDS011;3236;51.022;6.818;2023-03-23T15:21:56;3.10;;;1.77;;
6406;SDS011;3236;51.022;6.818;2023-03-23T15:24:31;6.75;;;1.90;;
6406;SDS011;3236;51.022;6.818;2023-03-23T20:41:14;4.60;;;1.52;;
6406;SDS011;3236;51.022;6.818;2023-03-23T20:43:43;6.80;;;1.63;;
6406;SDS011;3236;51.022;6.818;2023-03-23T20:46:10;5.90;;;1.70;;
6406;SDS011;3236;51.022;6.818;2023-03-23T20:48:38;7.18;;;1.90;;
6406;SDS011;3236;51.022;6.818;2023-03-23T20:51:06;4.68;;;1.55;;
6406;SDS011;3236;51.022;6.818;2023-03-23T20:53:34;6.55;;;2.22;;
6406;SDS011;3236;51.022;6.818;2023-03-23T20:56:03;9.00;;;2.00;;
6406;SDS011;3236;51.022;6.818;2023-03-23T20:58:33;6.25;;;2.05;;
6406;SDS011;3236;51.022;6.818;2023-03-23T21:01:00;6.40;;;2.22;;
6406;SDS011;3236;51.022;6.818;2023-03-23T21:03:30;3.03;;;1.70;;
6406;SDS011;3236;51.022;6.818;2023-03-23T21:05:59;5.85;;;2.20;;
6406;SDS011;3236;51.022;6.818;2023-03-23T21:08:27;4.65;;;1.77;;
6406;SDS011;3236;51.022;6.818;2023-03-23T21:10:55;4.63;;;1.45;;
6406;SDS011;3236;51.022;6.818;2023-03-23T21:13:28;5.72;;;2.10;;
6406;SDS011;3236;51.022;6.818;2023-03-23T21:16:01;2.90;;;1.77;;
6406;SDS011;3236;51.022;6.818;2023-03-23T21:18:31;3.97;;;2.10;;
6406;SDS011;3236;51.022;6.818;2023-03-23T21:20:59;5.40;;;1.75;;
6406;SDS011;3236;51.022;6.818;2023-03-23T21:23:27;3.33;;;1.50;;
6406;SDS011;3236;51.022;6.818;2023-03-23T21:25:57;5.05;;;1.50;;